sensor_id;sensor_type;location;lat;lon;timestamp;P1;durP1;ratioP1;P2;durP2;ratioP2
23549;SDS011;11953;49.010;8.608;2023-07-20T00:01:04;1999.90;;;999.90;;
23549;SDS011;11953;49.010;8.608;2023-07-20T00:03:52;1999.90;;;999.90;;
23549;SDS011;11953;49.010;8.608;2023-07-20T00:06:40;1999.90;;;999.90;;
23549;SDS011;11953;49.010;8.608;2023-07-20T00:09:27;1999.90;;;999.90;;
23549;SDS011;11953;49.010;8.608;2023-07-20T00:12:14;1999.90;;;999.90;;
23549;SDS011;11953;49.010;8.608;2023-07-20T00:15:01;1999.90;;;999.90;;
23549;SDS011;11953;49.010;8.608;2023-07-20T00:17:48;1999.90;;;999.90;;
23549;SDS011;11953;49.010;8.608;2023-07-20T00:20:36;1999.90;;;999.90;;
23549;SDS011;11953;49.010;8.608;2023-07-20T00:23:23;1999.90;;;999.90;;
23549;SDS011;11953;49.010;8.608;2023-07-20T00:26:10;1999.90;;;999.90;;
23549;SDS011;11953;49.010;8.608;2023-07-20T00:28:56;1999.90;;;999.90;;
23549;SDS011;11953;49.010;8.608;2023-07-20T00:31:43;1999.90;;;999.90;;
23549;SDS011;11953;49.010;8.608;2023-07-20T00:34:31;1999.90;;;999.90;;
23549;SDS011;11953;49.010;8.608;2023-07-20T00:37:20;1999.90;;;999.90;;
23549;SDS011;11953;49.010;8.608;2023-07-20T00:40:07;1999.90;;;999.90;;
23549;SDS011;11953;49.010;8.608;2023-07-20T00:42:54;1999.90;;;999.90;;
23549;SDS011;11953;49.010;8.608;2023-07-20T00:45:41;1999.90;;;999.90;;
23549;SDS011;11953;49.010;8.608;2023-07-20T00:48:29;1999.90;;;999.90;;
23549;SDS011;11953;49.010;8.608;2023-07-20T00:51:16;1999.90;;;999.90;;
23549;SDS011;11953;49.010;8.608;2023-07-20T00:54:05;1999.90;;;999.90;;
23549;SDS011;11953;49.010;8.608;2023-07-20T00:56:53;1999.90;;;999.90;;
23549;SDS011;11953;49.010;8.608;2023-07-20T00:59:41;1999.90;;;999.90;;
23549;SDS011;11953;49.010;8.608;2023-07-20T01:02:28;1999.90;;;999.90;;
23549;SDS011;11953;49.010;8.608;2023-07-20T01:05:15;1999.90;;;999.90;;
23549;SDS011;11953;49.010;8.608;2023-07-20T01:08:03;1999.90;;;999.90;;
23549;SDS011;11953;49.010;8.608;2023-07-20T01:10:59;1999.90;;;999.90;;
23549;SDS011;11953;49.010;8.608;2023-07-20T01:13:51;1999.90;;;999.90;;
23549;SDS011;11953;49.010;8.608;2023-07-20T01:16:38;1999.90;;;999.90;;
23549;SDS011;11953;49.010;8.608;2023-07-20T01:19:25;1999.90;;;999.90;;
23549;SDS011;11953;49.010;8.608;2023-07-20T01:22:15;1999.90;;;999.90;;
23549;SDS011;11953;49.010;8.608;2023-07-20T01:25:21;1999.90;;;999.90;;
23549;SDS011;11953;49.010;8.608;2023-07-20T01:31:18;26.23;;;24.90;;
23549;SDS011;11953;49.010;8.608;2023-07-20T01:34:08;25.80;;;24.50;;
23549;SDS011;11953;49.010;8.608;2023-07-20T01:36:58;1505.65;;;755.38;;
23549;SDS011;11953;49.010;8.608;2023-07-20T01:39:47;1999.90;;;999.90;;
23549;SDS011;11953;49.010;8.608;2023-07-20T01:42:34;1999.90;;;999.90;;
23549;SDS011;11953;49.010;8.608;2023-07-20T01:45:21;1999.90;;;999.90;;
23549;SDS011;11953;49.010;8.608;2023-07-20T01:48:09;1999.90;;;999.90;;
23549;SDS011;11953;49.010;8.608;2023-07-20T01:50:56;1506.60;;;756.28;;
23549;SDS011;11953;49.010;8.608;2023-07-20T01:53:43;1506.20;;;755.88;;
23549;SDS011;11953;49.010;8.608;2023-07-20T01:56:32;1506.18;;;755.85;;
23549;SDS011;11953;49.010;8.608;2023-07-20T01:59:19;1506.18;;;755.85;;
23549;SDS011;11953;49.010;8.608;2023-07-20T02:02:06;23.95;;;22.65;;
23549;SDS011;11953;49.010;8.608;2023-07-20T02:04:54;24.77;;;23.48;;
23549;SDS011;11953;49.010;8.608;2023-07-20T02:07:41;25.98;;;24.67;;
23549;SDS011;11953;49.010;8.608;2023-07-20T02:10:28;1506.50;;;756.17;;
23549;SDS011;11953;49.010;8.608;2023-07-20T02:13:14;22.45;;;21.35;;
23549;SDS011;11953;49.010;8.608;2023-07-20T02:16:01;1506.30;;;755.97;;
23549;SDS011;11953;49.010;8.608;2023-07-20T02:18:47;24.60;;;23.40;;
23549;SDS011;11953;49.010;8.608;2023-07-20T02:21:36;23.98;;;22.77;;
23549;SDS011;11953;49.010;8.608;2023-07-20T02:24:23;24.77;;;23.58;;
23549;SDS011;11953;49.010;8.608;2023-07-20T02:27:10;24.50;;;23.20;;
23549;SDS011;11953;49.010;8.608;2023-07-20T02:29:57;24.75;;;23.55;;
23549;SDS011;11953;49.010;8.608;2023-07-20T02:32:43;25.25;;;24.05;;
23549;SDS011;11953;49.010;8.608;2023-07-20T02:35:30;26.00;;;24.70;;
23549;SDS011;11953;49.010;8.608;2023-07-20T02:38:18;25.10;;;23.83;;
23549;SDS011;11953;49.010;8.608;2023-07-20T02:41:05;24.05;;;22.85;;
23549;SDS011;11953;49.010;8.608;2023-07-20T02:43:52;25.02;;;23.63;;
23549;SDS011;11953;49.010;8.608;2023-07-20T02:46:39;25.05;;;23.75;;
23549;SDS011;11953;49.010;8.608;2023-07-20T02:49:27;23.70;;;22.40;;
23549;SDS011;11953;49.010;8.608;2023-07-20T02:52:14;24.25;;;23.05;;
23549;SDS011;11953;49.010;8.608;2023-07-20T02:55:02;23.52;;;22.40;;
23549;SDS011;11953;49.010;8.608;2023-07-20T02:57:49;24.65;;;23.35;;
23549;SDS011;11953;49.010;8.608;2023-07-20T03:00:35;25.65;;;24.35;;
23549;SDS011;11953;49.010;8.608;2023-07-20T03:03:22;24.23;;;23.00;;
23549;SDS011;11953;49.010;8.608;2023-07-20T03:06:09;26.00;;;24.60;;
23549;SDS011;11953;49.010;8.608;2023-07-20T03:08:56;24.10;;;22.70;;
23549;SDS011;11953;49.010;8.608;2023-07-20T03:11:44;25.42;;;24.13;;
23549;SDS011;11953;49.010;8.608;2023-07-20T03:14:31;25.52;;;24.20;;
23549;SDS011;11953;49.010;8.608;2023-07-20T03:17:18;25.98;;;24.67;;
23549;SDS011;11953;49.010;8.608;2023-07-20T03:20:06;22.92;;;21.83;;
23549;SDS011;11953;49.010;8.608;2023-07-20T03:22:55;24.10;;;22.85;;
23549;SDS011;11953;49.010;8.608;2023-07-20T03:25:42;25.25;;;23.95;;
23549;SDS011;11953;49.010;8.608;2023-07-20T03:28:30;23.75;;;22.55;;
23549;SDS011;11953;49.010;8.608;2023-07-20T03:31:17;25.15;;;23.85;;
23549;SDS011;11953;49.010;8.608;2023-07-20T03:34:04;24.02;;;22.83;;
23549;SDS011;11953;49.010;8.608;2023-07-20T03:36:51;23.90;;;22.70;;
23549;SDS011;11953;49.010;8.608;2023-07-20T03:39:37;24.38;;;23.15;;
23549;SDS011;11953;49.010;8.608;2023-07-20T03:42:25;24.65;;;23.42;;
23549;SDS011;11953;49.010;8.608;2023-07-20T03:45:13;26.00;;;24.70;;
23549;SDS011;11953;49.010;8.608;2023-07-20T03:48:00;24.35;;;23.17;;
23549;SDS011;11953;49.010;8.608;2023-07-20T03:50:47;24.17;;;22.83;;
23549;SDS011;11953;49.010;8.608;2023-07-20T03:53:35;24.35;;;23.15;;
23549;SDS011;11953;49.010;8.608;2023-07-20T03:56:22;23.77;;;22.48;;
23549;SDS011;11953;49.010;8.608;2023-07-20T03:59:09;25.45;;;24.15;;
23549;SDS011;11953;49.010;8.608;2023-07-20T04:01:58;25.23;;;23.73;;
23549;SDS011;11953;49.010;8.608;2023-07-20T04:04:45;25.63;;;24.08;;
23549;SDS011;11953;49.010;8.608;2023-07-20T04:07:31;26.60;;;25.30;;
23549;SDS011;11953;49.010;8.608;2023-07-20T04:10:18;25.63;;;24.23;;
23549;SDS011;11953;49.010;8.608;2023-07-20T04:13:09;25.83;;;24.52;;
23549;SDS011;11953;49.010;8.608;2023-07-20T04:15:56;25.63;;;24.33;;
23549;SDS011;11953;49.010;8.608;2023-07-20T04:18:44;24.73;;;23.45;;
23549;SDS011;11953;49.010;8.608;2023-07-20T04:21:31;23.77;;;22.55;;
23549;SDS011;11953;49.010;8.608;2023-07-20T04:24:18;24.30;;;22.73;;
23549;SDS011;11953;49.010;8.608;2023-07-20T04:27:04;24.35;;;22.95;;
23549;SDS011;11953;49.010;8.608;2023-07-20T04:29:51;23.35;;;22.15;;
23549;SDS011;11953;49.010;8.608;2023-07-20T04:32:38;25.77;;;24.48;;
23549;SDS011;11953;49.010;8.608;2023-07-20T04:35:46;24.90;;;23.35;;
23549;SDS011;11953;49.010;8.608;2023-07-20T04:38:37;25.88;;;24.35;;
23549;SDS011;11953;49.010;8.608;2023-07-20T04:41:37;24.95;;;23.52;;
23549;SDS011;11953;49.010;8.608;2023-07-20T04:44:24;25.88;;;24.38;;
23549;SDS011;11953;49.010;8.608;2023-07-20T04:47:11;26.75;;;25.25;;
23549;SDS011;11953;49.010;8.608;2023-07-20T04:49:58;25.63;;;24.25;;
23549;SDS011;11953;49.010;8.608;2023-07-20T04:52:46;25.45;;;23.95;;
23549;SDS011;11953;49.010;8.608;2023-07-20T04:55:36;24.58;;;23.23;;
23549;SDS011;11953;49.010;8.608;2023-07-20T04:58:23;25.30;;;24.10;;
23549;SDS011;11953;49.010;8.608;2023-07-20T05:01:12;23.98;;;22.45;;
23549;SDS011;11953;49.010;8.608;2023-07-20T05:03:59;25.13;;;23.73;;
23549;SDS011;11953;49.010;8.608;2023-07-20T05:06:46;25.00;;;23.48;;
23549;SDS011;11953;49.010;8.608;2023-07-20T05:09:34;26.48;;;24.98;;
23549;SDS011;11953;49.010;8.608;2023-07-20T05:12:22;24.63;;;23.17;;
23549;SDS011;11953;49.010;8.608;2023-07-20T05:15:09;23.83;;;22.55;;
23549;SDS011;11953;49.010;8.608;2023-07-20T05:17:57;23.75;;;22.35;;
23549;SDS011;11953;49.010;8.608;2023-07-20T05:20:45;25.92;;;24.42;;
23549;SDS011;11953;49.010;8.608;2023-07-20T05:23:32;25.30;;;23.92;;
23549;SDS011;11953;49.010;8.608;2023-07-20T05:26:21;23.98;;;22.20;;
23549;SDS011;11953;49.010;8.608;2023-07-20T05:29:08;23.08;;;21.88;;
23549;SDS011;11953;49.010;8.608;2023-07-20T05:31:54;25.50;;;23.85;;
23549;SDS011;11953;49.010;8.608;2023-07-20T05:34:41;24.13;;;22.73;;
23549;SDS011;11953;49.010;8.608;2023-07-20T05:37:28;24.20;;;22.65;;
23549;SDS011;11953;49.010;8.608;2023-07-20T05:40:15;24.05;;;22.70;;
23549;SDS011;11953;49.010;8.608;2023-07-20T05:43:05;23.85;;;22.55;;
23549;SDS011;11953;49.010;8.608;2023-07-20T05:45:52;23.58;;;22.27;;
23549;SDS011;11953;49.010;8.608;2023-07-20T05:48:39;24.70;;;23.30;;
23549;SDS011;11953;49.010;8.608;2023-07-20T05:51:26;27.60;;;25.88;;
23549;SDS011;11953;49.010;8.608;2023-07-20T05:54:13;26.52;;;24.25;;
23549;SDS011;11953;49.010;8.608;2023-07-20T05:57:00;26.20;;;24.40;;
23549;SDS011;11953;49.010;8.608;2023-07-20T05:59:48;26.60;;;24.70;;
23549;SDS011;11953;49.010;8.608;2023-07-20T06:02:34;25.92;;;24.13;;
23549;SDS011;11953;49.010;8.608;2023-07-20T06:05:21;25.63;;;23.63;;
23549;SDS011;11953;49.010;8.608;2023-07-20T06:08:13;26.63;;;24.73;;
23549;SDS011;11953;49.010;8.608;2023-07-20T06:10:59;25.98;;;24.20;;
23549;SDS011;11953;49.010;8.608;2023-07-20T06:13:45;26.35;;;24.48;;
23549;SDS011;11953;49.010;8.608;2023-07-20T06:16:34;27.40;;;25.38;;
23549;SDS011;11953;49.010;8.608;2023-07-20T06:19:21;28.55;;;26.75;;
23549;SDS011;11953;49.010;8.608;2023-07-20T06:22:08;26.17;;;24.27;;
23549;SDS011;11953;49.010;8.608;2023-07-20T06:24:55;28.05;;;26.23;;
23549;SDS011;11953;49.010;8.608;2023-07-20T06:27:42;28.92;;;26.30;;
23549;SDS011;11953;49.010;8.608;2023-07-20T06:30:29;25.40;;;23.80;;
23549;SDS011;11953;49.010;8.608;2023-07-20T06:33:17;25.80;;;24.02;;
23549;SDS011;11953;49.010;8.608;2023-07-20T06:36:03;26.88;;;25.17;;
23549;SDS011;11953;49.010;8.608;2023-07-20T06:38:50;23.75;;;22.25;;
23549;SDS011;11953;49.010;8.608;2023-07-20T06:41:40;25.42;;;23.73;;
23549;SDS011;11953;49.010;8.608;2023-07-20T06:44:27;26.35;;;24.58;;
23549;SDS011;11953;49.010;8.608;2023-07-20T06:47:14;25.67;;;24.10;;
23549;SDS011;11953;49.010;8.608;2023-07-20T06:50:02;26.65;;;24.85;;
23549;SDS011;11953;49.010;8.608;2023-07-20T06:52:49;25.30;;;23.38;;
23549;SDS011;11953;49.010;8.608;2023-07-20T06:55:36;26.92;;;24.77;;
23549;SDS011;11953;49.010;8.608;2023-07-20T06:58:26;25.92;;;24.30;;
23549;SDS011;11953;49.010;8.608;2023-07-20T07:01:13;25.15;;;23.63;;
23549;SDS011;11953;49.010;8.608;2023-07-20T07:04:00;26.45;;;24.75;;
23549;SDS011;11953;49.010;8.608;2023-07-20T07:06:48;26.25;;;24.85;;
23549;SDS011;11953;49.010;8.608;2023-07-20T07:09:35;24.90;;;23.50;;
23549;SDS011;11953;49.010;8.608;2023-07-20T07:12:22;25.48;;;23.92;;
23549;SDS011;11953;49.010;8.608;2023-07-20T07:15:09;25.85;;;24.35;;
23549;SDS011;11953;49.010;8.608;2023-07-20T07:17:56;26.25;;;24.70;;
23549;SDS011;11953;49.010;8.608;2023-07-20T07:20:49;25.17;;;23.67;;
23549;SDS011;11953;49.010;8.608;2023-07-20T07:23:39;24.88;;;23.38;;
23549;SDS011;11953;49.010;8.608;2023-07-20T07:26:25;23.48;;;22.10;;
23549;SDS011;11953;49.010;8.608;2023-07-20T07:29:12;25.92;;;24.23;;
23549;SDS011;11953;49.010;8.608;2023-07-20T07:31:59;25.20;;;23.90;;
23549;SDS011;11953;49.010;8.608;2023-07-20T07:34:46;25.77;;;24.25;;
23549;SDS011;11953;49.010;8.608;2023-07-20T07:37:34;25.88;;;24.42;;
23549;SDS011;11953;49.010;8.608;2023-07-20T07:40:42;25.27;;;23.63;;
23549;SDS011;11953;49.010;8.608;2023-07-20T07:43:29;26.60;;;25.10;;
23549;SDS011;11953;49.010;8.608;2023-07-20T07:46:16;26.55;;;25.13;;
23549;SDS011;11953;49.010;8.608;2023-07-20T07:49:03;26.80;;;25.30;;
23549;SDS011;11953;49.010;8.608;2023-07-20T07:51:50;25.70;;;24.30;;
23549;SDS011;11953;49.010;8.608;2023-07-20T07:54:37;26.02;;;24.63;;
23549;SDS011;11953;49.010;8.608;2023-07-20T07:57:25;28.52;;;26.85;;
23549;SDS011;11953;49.010;8.608;2023-07-20T08:00:12;24.85;;;23.40;;
23549;SDS011;11953;49.010;8.608;2023-07-20T08:03:00;25.38;;;24.08;;
23549;SDS011;11953;49.010;8.608;2023-07-20T08:05:47;27.25;;;25.75;;
23549;SDS011;11953;49.010;8.608;2023-07-20T08:08:33;24.55;;;23.08;;
23549;SDS011;11953;49.010;8.608;2023-07-20T08:11:21;25.88;;;24.58;;
23549;SDS011;11953;49.010;8.608;2023-07-20T08:14:10;25.02;;;23.77;;
23549;SDS011;11953;49.010;8.608;2023-07-20T08:16:57;25.33;;;23.83;;
23549;SDS011;11953;49.010;8.608;2023-07-20T08:19:44;24.17;;;22.70;;
23549;SDS011;11953;49.010;8.608;2023-07-20T08:22:32;24.75;;;23.45;;
23549;SDS011;11953;49.010;8.608;2023-07-20T08:25:19;24.20;;;22.90;;
23549;SDS011;11953;49.010;8.608;2023-07-20T08:28:06;23.50;;;22.30;;
23549;SDS011;11953;49.010;8.608;2023-07-20T08:30:54;25.42;;;24.02;;
23549;SDS011;11953;49.010;8.608;2023-07-20T08:33:41;25.55;;;24.15;;
23549;SDS011;11953;49.010;8.608;2023-07-20T08:36:27;24.48;;;23.17;;
23549;SDS011;11953;49.010;8.608;2023-07-20T08:39:15;23.48;;;22.27;;
23549;SDS011;11953;49.010;8.608;2023-07-20T08:42:02;27.52;;;26.08;;
23549;SDS011;11953;49.010;8.608;2023-07-20T08:44:51;25.20;;;23.92;;
23549;SDS011;11953;49.010;8.608;2023-07-20T08:47:41;25.65;;;24.35;;
23549;SDS011;11953;49.010;8.608;2023-07-20T08:50:30;25.10;;;23.80;;
23549;SDS011;11953;49.010;8.608;2023-07-20T08:53:17;24.83;;;23.63;;
23549;SDS011;11953;49.010;8.608;2023-07-20T08:56:04;25.65;;;24.02;;
23549;SDS011;11953;49.010;8.608;2023-07-20T08:58:52;25.77;;;24.40;;
23549;SDS011;11953;49.010;8.608;2023-07-20T09:01:40;26.25;;;24.85;;
23549;SDS011;11953;49.010;8.608;2023-07-20T09:04:29;25.27;;;23.88;;
23549;SDS011;11953;49.010;8.608;2023-07-20T09:07:16;24.83;;;23.50;;
23549;SDS011;11953;49.010;8.608;2023-07-20T09:10:05;23.98;;;22.77;;
23549;SDS011;11953;49.010;8.608;2023-07-20T09:12:52;25.98;;;24.67;;
23549;SDS011;11953;49.010;8.608;2023-07-20T09:15:42;23.00;;;21.60;;
23549;SDS011;11953;49.010;8.608;2023-07-20T09:18:32;24.85;;;23.58;;
23549;SDS011;11953;49.010;8.608;2023-07-20T09:21:21;23.85;;;22.40;;
23549;SDS011;11953;49.010;8.608;2023-07-20T09:24:08;24.58;;;23.38;;
23549;SDS011;11953;49.010;8.608;2023-07-20T09:26:55;23.48;;;22.27;;
23549;SDS011;11953;49.010;8.608;2023-07-20T09:29:47;24.33;;;23.02;;
23549;SDS011;11953;49.010;8.608;2023-07-20T09:32:38;24.27;;;23.10;;
23549;SDS011;11953;49.010;8.608;2023-07-20T09:35:37;25.55;;;24.02;;
23549;SDS011;11953;49.010;8.608;2023-07-20T09:38:29;24.38;;;23.02;;
23549;SDS011;11953;49.010;8.608;2023-07-20T09:41:39;24.38;;;23.08;;
23549;SDS011;11953;49.010;8.608;2023-07-20T09:47:22;24.55;;;23.15;;
23549;SDS011;11953;49.010;8.608;2023-07-20T09:50:13;25.02;;;23.83;;
23549;SDS011;11953;49.010;8.608;2023-07-20T09:53:02;25.15;;;23.75;;
23549;SDS011;11953;49.010;8.608;2023-07-20T09:55:53;26.73;;;25.33;;
23549;SDS011;11953;49.010;8.608;2023-07-20T09:58:40;24.70;;;23.35;;
23549;SDS011;11953;49.010;8.608;2023-07-20T10:01:28;24.73;;;23.42;;
23549;SDS011;11953;49.010;8.608;2023-07-20T10:04:16;24.00;;;22.80;;
23549;SDS011;11953;49.010;8.608;2023-07-20T10:07:07;23.45;;;22.25;;
23549;SDS011;11953;49.010;8.608;2023-07-20T10:09:56;25.77;;;24.48;;
23549;SDS011;11953;49.010;8.608;2023-07-20T10:12:49;24.00;;;22.60;;
23549;SDS011;11953;49.010;8.608;2023-07-20T10:15:40;23.42;;;22.23;;
23549;SDS011;11953;49.010;8.608;2023-07-20T10:18:35;24.17;;;22.98;;
23549;SDS011;11953;49.010;8.608;2023-07-20T10:21:29;25.02;;;23.77;;
23549;SDS011;11953;49.010;8.608;2023-07-20T10:24:19;24.67;;;23.48;;
23549;SDS011;11953;49.010;8.608;2023-07-20T10:27:06;26.35;;;24.80;;
23549;SDS011;11953;49.010;8.608;2023-07-20T10:29:54;25.15;;;23.75;;
23549;SDS011;11953;49.010;8.608;2023-07-20T10:32:42;24.67;;;23.48;;
23549;SDS011;11953;49.010;8.608;2023-07-20T10:35:30;24.75;;;23.55;;
23549;SDS011;11953;49.010;8.608;2023-07-20T10:38:17;24.83;;;23.52;;
23549;SDS011;11953;49.010;8.608;2023-07-20T10:41:03;25.10;;;23.75;;
23549;SDS011;11953;49.010;8.608;2023-07-20T10:43:50;25.25;;;23.83;;
23549;SDS011;11953;49.010;8.608;2023-07-20T10:46:45;24.80;;;23.25;;
23549;SDS011;11953;49.010;8.608;2023-07-20T10:49:32;24.80;;;23.45;;
23549;SDS011;11953;49.010;8.608;2023-07-20T10:52:20;26.92;;;25.52;;
23549;SDS011;11953;49.010;8.608;2023-07-20T10:55:10;25.25;;;23.98;;
23549;SDS011;11953;49.010;8.608;2023-07-20T10:58:06;25.10;;;23.88;;
23549;SDS011;11953;49.010;8.608;2023-07-20T11:00:55;25.85;;;24.65;;
23549;SDS011;11953;49.010;8.608;2023-07-20T11:03:49;24.55;;;23.35;;
23549;SDS011;11953;49.010;8.608;2023-07-20T11:06:38;25.55;;;24.15;;
23549;SDS011;11953;49.010;8.608;2023-07-20T11:09:32;26.45;;;25.15;;
23549;SDS011;11953;49.010;8.608;2023-07-20T11:12:20;25.35;;;23.92;;
23549;SDS011;11953;49.010;8.608;2023-07-20T11:15:07;25.33;;;24.13;;
23549;SDS011;11953;49.010;8.608;2023-07-20T11:18:02;24.05;;;22.85;;
23549;SDS011;11953;49.010;8.608;2023-07-20T11:20:59;26.30;;;24.77;;
23549;SDS011;11953;49.010;8.608;2023-07-20T11:23:46;23.40;;;22.27;;
23549;SDS011;11953;49.010;8.608;2023-07-20T11:26:43;26.23;;;24.92;;
23549;SDS011;11953;49.010;8.608;2023-07-20T11:29:31;25.90;;;24.52;;
23549;SDS011;11953;49.010;8.608;2023-07-20T11:32:20;24.85;;;23.65;;
23549;SDS011;11953;49.010;8.608;2023-07-20T11:35:12;23.38;;;22.17;;
23549;SDS011;11953;49.010;8.608;2023-07-20T11:38:00;27.00;;;25.70;;
23549;SDS011;11953;49.010;8.608;2023-07-20T11:40:47;25.80;;;24.50;;
23549;SDS011;11953;49.010;8.608;2023-07-20T11:43:34;27.83;;;26.25;;
23549;SDS011;11953;49.010;8.608;2023-07-20T11:46:22;25.25;;;24.05;;
23549;SDS011;11953;49.010;8.608;2023-07-20T11:49:10;25.73;;;24.13;;
23549;SDS011;11953;49.010;8.608;2023-07-20T11:51:58;24.73;;;23.52;;
23549;SDS011;11953;49.010;8.608;2023-07-20T11:54:49;25.58;;;24.27;;
23549;SDS011;11953;49.010;8.608;2023-07-20T11:57:36;25.05;;;23.75;;
23549;SDS011;11953;49.010;8.608;2023-07-20T12:00:24;26.35;;;24.95;;
23549;SDS011;11953;49.010;8.608;2023-07-20T12:03:12;26.38;;;25.13;;
23549;SDS011;11953;49.010;8.608;2023-07-20T12:06:05;25.63;;;24.10;;
23549;SDS011;11953;49.010;8.608;2023-07-20T12:08:54;26.73;;;25.42;;
23549;SDS011;11953;49.010;8.608;2023-07-20T12:11:44;25.08;;;23.77;;
23549;SDS011;11953;49.010;8.608;2023-07-20T12:14:31;25.25;;;23.95;;
23549;SDS011;11953;49.010;8.608;2023-07-20T12:17:18;24.75;;;23.58;;
23549;SDS011;11953;49.010;8.608;2023-07-20T12:20:05;26.30;;;25.00;;
23549;SDS011;11953;49.010;8.608;2023-07-20T12:22:55;24.52;;;23.33;;
23549;SDS011;11953;49.010;8.608;2023-07-20T12:25:44;24.15;;;23.02;;
23549;SDS011;11953;49.010;8.608;2023-07-20T12:28:35;25.55;;;24.25;;
23549;SDS011;11953;49.010;8.608;2023-07-20T12:31:24;24.13;;;22.92;;
23549;SDS011;11953;49.010;8.608;2023-07-20T12:34:12;24.15;;;22.95;;
23549;SDS011;11953;49.010;8.608;2023-07-20T12:36:59;25.30;;;24.00;;
23549;SDS011;11953;49.010;8.608;2023-07-20T12:39:48;25.10;;;23.90;;
23549;SDS011;11953;49.010;8.608;2023-07-20T12:42:35;24.75;;;23.55;;
23549;SDS011;11953;49.010;8.608;2023-07-20T12:45:23;1999.90;;;999.90;;
23549;SDS011;11953;49.010;8.608;2023-07-20T12:48:10;1506.15;;;755.85;;
23549;SDS011;11953;49.010;8.608;2023-07-20T12:50:57;24.55;;;23.20;;
23549;SDS011;11953;49.010;8.608;2023-07-20T12:53:43;1999.90;;;999.90;;
23549;SDS011;11953;49.010;8.608;2023-07-20T12:56:30;1506.00;;;755.67;;
23549;SDS011;11953;49.010;8.608;2023-07-20T12:59:20;1999.90;;;999.90;;
23549;SDS011;11953;49.010;8.608;2023-07-20T13:02:08;1999.90;;;999.90;;
23549;SDS011;11953;49.010;8.608;2023-07-20T13:04:55;1999.90;;;999.90;;
23549;SDS011;11953;49.010;8.608;2023-07-20T13:07:42;1999.90;;;999.90;;
23549;SDS011;11953;49.010;8.608;2023-07-20T13:10:31;1999.90;;;999.90;;
23549;SDS011;11953;49.010;8.608;2023-07-20T13:13:18;1999.90;;;999.90;;
23549;SDS011;11953;49.010;8.608;2023-07-20T13:16:04;1999.90;;;999.90;;
23549;SDS011;11953;49.010;8.608;2023-07-20T13:18:53;1999.90;;;999.90;;
23549;SDS011;11953;49.010;8.608;2023-07-20T13:21:40;1999.90;;;999.90;;
23549;SDS011;11953;49.010;8.608;2023-07-20T13:24:26;1999.90;;;999.90;;
23549;SDS011;11953;49.010;8.608;2023-07-20T13:27:13;1999.90;;;999.90;;
23549;SDS011;11953;49.010;8.608;2023-07-20T13:30:00;1999.90;;;999.90;;
23549;SDS011;11953;49.010;8.608;2023-07-20T13:32:51;1999.90;;;999.90;;
23549;SDS011;11953;49.010;8.608;2023-07-20T13:35:40;1999.90;;;999.90;;
23549;SDS011;11953;49.010;8.608;2023-07-20T13:38:30;1999.90;;;999.90;;
23549;SDS011;11953;49.010;8.608;2023-07-20T13:41:16;1999.90;;;999.90;;
23549;SDS011;11953;49.010;8.608;2023-07-20T13:44:03;1999.90;;;999.90;;
23549;SDS011;11953;49.010;8.608;2023-07-20T13:46:50;1999.90;;;999.90;;
23549;SDS011;11953;49.010;8.608;2023-07-20T13:49:57;1999.90;;;999.90;;
23549;SDS011;11953;49.010;8.608;2023-07-20T13:52:49;1999.90;;;999.90;;
23549;SDS011;11953;49.010;8.608;2023-07-20T13:55:36;1999.90;;;999.90;;
23549;SDS011;11953;49.010;8.608;2023-07-20T13:58:26;1999.90;;;999.90;;
23549;SDS011;11953;49.010;8.608;2023-07-20T14:01:16;1999.90;;;999.90;;
23549;SDS011;11953;49.010;8.608;2023-07-20T14:04:07;1999.90;;;999.90;;
23549;SDS011;11953;49.010;8.608;2023-07-20T14:06:54;1999.90;;;999.90;;
23549;SDS011;11953;49.010;8.608;2023-07-20T14:09:42;1999.90;;;999.90;;
23549;SDS011;11953;49.010;8.608;2023-07-20T14:12:32;1999.90;;;999.90;;
23549;SDS011;11953;49.010;8.608;2023-07-20T14:15:18;1999.90;;;999.90;;
23549;SDS011;11953;49.010;8.608;2023-07-20T14:18:04;1999.90;;;999.90;;
23549;SDS011;11953;49.010;8.608;2023-07-20T14:20:51;1999.90;;;999.90;;
23549;SDS011;11953;49.010;8.608;2023-07-20T14:23:38;1999.90;;;999.90;;
23549;SDS011;11953;49.010;8.608;2023-07-20T14:26:25;1999.90;;;999.90;;
23549;SDS011;11953;49.010;8.608;2023-07-20T14:29:13;1999.90;;;999.90;;
23549;SDS011;11953;49.010;8.608;2023-07-20T14:32:01;1999.90;;;999.90;;
23549;SDS011;11953;49.010;8.608;2023-07-20T14:34:49;1999.90;;;999.90;;
23549;SDS011;11953;49.010;8.608;2023-07-20T14:37:38;1999.90;;;999.90;;
23549;SDS011;11953;49.010;8.608;2023-07-20T14:40:24;1999.90;;;999.90;;
23549;SDS011;11953;49.010;8.608;2023-07-20T14:43:13;1999.90;;;999.90;;
23549;SDS011;11953;49.010;8.608;2023-07-20T14:45:59;1999.90;;;999.90;;
23549;SDS011;11953;49.010;8.608;2023-07-20T14:48:46;1999.90;;;999.90;;
23549;SDS011;11953;49.010;8.608;2023-07-20T14:51:32;1999.90;;;999.90;;
23549;SDS011;11953;49.010;8.608;2023-07-20T14:54:22;1999.90;;;999.90;;
23549;SDS011;11953;49.010;8.608;2023-07-20T14:57:08;1999.90;;;999.90;;
23549;SDS011;11953;49.010;8.608;2023-07-20T15:00:01;1999.90;;;999.90;;
23549;SDS011;11953;49.010;8.608;2023-07-20T15:02:52;1999.90;;;999.90;;
23549;SDS011;11953;49.010;8.608;2023-07-20T15:05:41;1999.90;;;999.90;;
23549;SDS011;11953;49.010;8.608;2023-07-20T15:08:27;1999.90;;;999.90;;
23549;SDS011;11953;49.010;8.608;2023-07-20T15:11:14;1999.90;;;999.90;;
23549;SDS011;11953;49.010;8.608;2023-07-20T15:14:01;1999.90;;;999.90;;
23549;SDS011;11953;49.010;8.608;2023-07-20T15:16:48;1999.90;;;999.90;;
23549;SDS011;11953;49.010;8.608;2023-07-20T15:19:35;1999.90;;;999.90;;
23549;SDS011;11953;49.010;8.608;2023-07-20T15:22:22;1999.90;;;999.90;;
23549;SDS011;11953;49.010;8.608;2023-07-20T15:25:10;1999.90;;;999.90;;
23549;SDS011;11953;49.010;8.608;2023-07-20T15:27:57;1999.90;;;999.90;;
23549;SDS011;11953;49.010;8.608;2023-07-20T15:30:43;1999.90;;;999.90;;
23549;SDS011;11953;49.010;8.608;2023-07-20T15:33:34;1999.90;;;999.90;;
23549;SDS011;11953;49.010;8.608;2023-07-20T15:36:22;1999.90;;;999.90;;
23549;SDS011;11953;49.010;8.608;2023-07-20T15:39:08;1999.90;;;999.90;;
23549;SDS011;11953;49.010;8.608;2023-07-20T15:41:55;1999.90;;;999.90;;
23549;SDS011;11953;49.010;8.608;2023-07-20T15:44:41;1999.90;;;999.90;;
23549;SDS011;11953;49.010;8.608;2023-07-20T15:47:28;1999.90;;;999.90;;
23549;SDS011;11953;49.010;8.608;2023-07-20T15:50:17;1999.90;;;999.90;;
23549;SDS011;11953;49.010;8.608;2023-07-20T15:53:06;1999.90;;;999.90;;
23549;SDS011;11953;49.010;8.608;2023-07-20T15:55:53;1999.90;;;999.90;;
23549;SDS011;11953;49.010;8.608;2023-07-20T15:58:41;1999.90;;;999.90;;
23549;SDS011;11953;49.010;8.608;2023-07-20T16:01:27;1999.90;;;999.90;;
23549;SDS011;11953;49.010;8.608;2023-07-20T16:04:15;1999.90;;;999.90;;
23549;SDS011;11953;49.010;8.608;2023-07-20T16:07:04;1999.90;;;999.90;;
23549;SDS011;11953;49.010;8.608;2023-07-20T16:09:52;1999.90;;;999.90;;
23549;SDS011;11953;49.010;8.608;2023-07-20T16:12:43;1999.90;;;999.90;;
23549;SDS011;11953;49.010;8.608;2023-07-20T16:15:32;1999.90;;;999.90;;